sensor_id;sensor_type;location;lat;lon;timestamp;temperature;humidity
3560;DHT22;1794;48.804;9.156;2022-09-14T00:01:25;17.00;99.90
3560;DHT22;1794;48.804;9.156;2022-09-14T00:03:55;17.20;99.90
3560;DHT22;1794;48.804;9.156;2022-09-14T00:06:23;17.40;99.90
3560;DHT22;1794;48.804;9.156;2022-09-14T00:08:51;17.30;99.90
3560;DHT22;1794;48.804;9.156;2022-09-14T00:11:19;17.20;99.90
3560;DHT22;1794;48.804;9.156;2022-09-14T00:13:46;17.00;99.90
3560;DHT22;1794;48.804;9.156;2022-09-14T00:16:17;17.00;99.90
3560;DHT22;1794;48.804;9.156;2022-09-14T00:18:44;17.00;99.90
3560;DHT22;1794;48.804;9.156;2022-09-14T00:21:16;17.10;99.90
3560;DHT22;1794;48.804;9.156;2022-09-14T00:23:43;17.30;99.90
3560;DHT22;1794;48.804;9.156;2022-09-14T00:26:11;17.30;99.90
3560;DHT22;1794;48.804;9.156;2022-09-14T00:28:39;17.20;99.90
3560;DHT22;1794;48.804;9.156;2022-09-14T00:31:06;17.20;99.90
3560;DHT22;1794;48.804;9.156;2022-09-14T00:33:33;17.20;99.90
3560;DHT22;1794;48.804;9.156;2022-09-14T00:36:06;17.30;99.90
3560;DHT22;1794;48.804;9.156;2022-09-14T00:38:34;17.20;99.90
3560;DHT22;1794;48.804;9.156;2022-09-14T00:41:03;17.20;99.90
3560;DHT22;1794;48.804;9.156;2022-09-14T00:43:30;17.20;99.90
3560;DHT22;1794;48.804;9.156;2022-09-14T00:45:59;17.20;99.90
3560;DHT22;1794;48.804;9.156;2022-09-14T00:48:26;17.30;99.90
3560;DHT22;1794;48.804;9.156;2022-09-14T00:50:55;17.20;99.90
3560;DHT22;1794;48.804;9.156;2022-09-14T00:53:22;17.20;99.90
3560;DHT22;1794;48.804;9.156;2022-09-14T00:55:50;17.30;99.90
3560;DHT22;1794;48.804;9.156;2022-09-14T00:58:19;17.40;99.90
3560;DHT22;1794;48.804;9.156;2022-09-14T01:00:46;17.30;99.90
3560;DHT22;1794;48.804;9.156;2022-09-14T01:03:13;17.40;99.90
3560;DHT22;1794;48.804;9.156;2022-09-14T01:05:57;17.50;99.90
3560;DHT22;1794;48.804;9.156;2022-09-14T01:08:48;17.30;99.90
3560;DHT22;1794;48.804;9.156;2022-09-14T01:11:47;17.20;99.90
3560;DHT22;1794;48.804;9.156;2022-09-14T01:14:20;17.20;99.90
3560;DHT22;1794;48.804;9.156;2022-09-14T01:16:55;17.20;99.90
3560;DHT22;1794;48.804;9.156;2022-09-14T01:19:32;17.30;99.90
3560;DHT22;1794;48.804;9.156;2022-09-14T01:22:10;17.30;99.90
3560;DHT22;1794;48.804;9.156;2022-09-14T01:24:43;17.30;99.90
3560;DHT22;1794;48.804;9.156;2022-09-14T01:27:30;17.10;99.90
3560;DHT22;1794;48.804;9.156;2022-09-14T01:30:03;17.00;99.90
3560;DHT22;1794;48.804;9.156;2022-09-14T01:32:36;17.10;99.90
3560;DHT22;1794;48.804;9.156;2022-09-14T01:35:12;17.40;99.90
3560;DHT22;1794;48.804;9.156;2022-09-14T01:37:43;18.00;99.90
3560;DHT22;1794;48.804;9.156;2022-09-14T01:40:15;17.60;99.90
3560;DHT22;1794;48.804;9.156;2022-09-14T01:42:46;17.40;99.90
3560;DHT22;1794;48.804;9.156;2022-09-14T01:45:16;17.40;99.90
3560;DHT22;1794;48.804;9.156;2022-09-14T01:47:45;17.40;99.90
3560;DHT22;1794;48.804;9.156;2022-09-14T01:50:16;17.50;99.90
3560;DHT22;1794;48.804;9.156;2022-09-14T01:52:47;17.50;99.90
3560;DHT22;1794;48.804;9.156;2022-09-14T01:55:18;17.60;99.90
3560;DHT22;1794;48.804;9.156;2022-09-14T01:57:50;17.60;99.90
3560;DHT22;1794;48.804;9.156;2022-09-14T02:00:19;17.80;99.90
3560;DHT22;1794;48.804;9.156;2022-09-14T02:02:50;17.70;99.90
3560;DHT22;1794;48.804;9.156;2022-09-14T02:05:25;17.70;99.90
3560;DHT22;1794;48.804;9.156;2022-09-14T02:07:53;17.60;99.90
3560;DHT22;1794;48.804;9.156;2022-09-14T02:10:20;17.90;99.90
3560;DHT22;1794;48.804;9.156;2022-09-14T02:12:50;17.90;99.90
3560;DHT22;1794;48.804;9.156;2022-09-14T02:15:17;17.70;99.90
3560;DHT22;1794;48.804;9.156;2022-09-14T02:17:44;17.60;99.90
3560;DHT22;1794;48.804;9.156;2022-09-14T02:20:21;17.70;99.90
3560;DHT22;1794;48.804;9.156;2022-09-14T02:22:49;17.70;99.90
3560;DHT22;1794;48.804;9.156;2022-09-14T02:25:16;17.70;99.90
3560;DHT22;1794;48.804;9.156;2022-09-14T02:27:43;17.70;99.90
3560;DHT22;1794;48.804;9.156;2022-09-14T02:30:13;17.70;99.90
3560;DHT22;1794;48.804;9.156;2022-09-14T02:32:50;17.60;99.90
3560;DHT22;1794;48.804;9.156;2022-09-14T02:35:22;17.60;99.90
3560;DHT22;1794;48.804;9.156;2022-09-14T02:37:58;17.60;99.90
3560;DHT22;1794;48.804;9.156;2022-09-14T02:40:32;17.70;99.90
3560;DHT22;1794;48.804;9.156;2022-09-14T02:43:09;17.60;99.90
3560;DHT22;1794;48.804;9.156;2022-09-14T02:45:44;17.60;99.90
3560;DHT22;1794;48.804;9.156;2022-09-14T02:48:21;17.60;99.90
3560;DHT22;1794;48.804;9.156;2022-09-14T02:51:05;17.80;99.90
3560;DHT22;1794;48.804;9.156;2022-09-14T02:53:37;17.70;99.90
3560;DHT22;1794;48.804;9.156;2022-09-14T02:56:07;17.70;99.90
3560;DHT22;1794;48.804;9.156;2022-09-14T02:58:37;17.60;99.90
3560;DHT22;1794;48.804;9.156;2022-09-14T03:01:07;17.50;99.90
3560;DHT22;1794;48.804;9.156;2022-09-14T03:03:34;17.80;99.90
3560;DHT22;1794;48.804;9.156;2022-09-14T03:06:01;17.60;99.90
3560;DHT22;1794;48.804;9.156;2022-09-14T03:08:29;17.50;99.90
3560;DHT22;1794;48.804;9.156;2022-09-14T03:10:56;17.70;99.90
3560;DHT22;1794;48.804;9.156;2022-09-14T03:13:23;17.90;99.90
3560;DHT22;1794;48.804;9.156;2022-09-14T03:15:50;17.80;99.90
3560;DHT22;1794;48.804;9.156;2022-09-14T03:18:18;17.60;99.90
3560;DHT22;1794;48.804;9.156;2022-09-14T03:20:44;17.60;99.90
3560;DHT22;1794;48.804;9.156;2022-09-14T03:23:12;17.50;99.90
3560;DHT22;1794;48.804;9.156;2022-09-14T03:25:40;17.50;99.90
3560;DHT22;1794;48.804;9.156;2022-09-14T03:28:08;17.50;99.90
3560;DHT22;1794;48.804;9.156;2022-09-14T03:30:35;17.50;99.90
3560;DHT22;1794;48.804;9.156;2022-09-14T03:33:02;17.50;99.90
3560;DHT22;1794;48.804;9.156;2022-09-14T03:35:31;17.50;99.90
3560;DHT22;1794;48.804;9.156;2022-09-14T03:37:58;17.50;99.90
3560;DHT22;1794;48.804;9.156;2022-09-14T03:40:25;17.50;99.90
3560;DHT22;1794;48.804;9.156;2022-09-14T03:42:52;17.50;99.90
3560;DHT22;1794;48.804;9.156;2022-09-14T03:45:20;17.60;99.90
3560;DHT22;1794;48.804;9.156;2022-09-14T03:47:47;17.80;99.90
3560;DHT22;1794;48.804;9.156;2022-09-14T03:50:15;17.70;99.90
3560;DHT22;1794;48.804;9.156;2022-09-14T03:52:43;17.70;99.90
3560;DHT22;1794;48.804;9.156;2022-09-14T03:55:10;17.60;99.90
3560;DHT22;1794;48.804;9.156;2022-09-14T03:57:37;17.70;99.90
3560;DHT22;1794;48.804;9.156;2022-09-14T04:00:06;17.80;99.90
3560;DHT22;1794;48.804;9.156;2022-09-14T04:02:33;17.80;99.90
3560;DHT22;1794;48.804;9.156;2022-09-14T04:04:59;17.80;99.90
3560;DHT22;1794;48.804;9.156;2022-09-14T04:07:26;17.70;99.90
3560;DHT22;1794;48.804;9.156;2022-09-14T04:09:54;17.70;99.90
3560;DHT22;1794;48.804;9.156;2022-09-14T04:12:21;17.60;99.90
3560;DHT22;1794;48.804;9.156;2022-09-14T04:14:48;17.70;99.90
3560;DHT22;1794;48.804;9.156;2022-09-14T04:17:15;17.60;99.90
3560;DHT22;1794;48.804;9.156;2022-09-14T04:19:42;17.70;99.90
3560;DHT22;1794;48.804;9.156;2022-09-14T04:22:08;17.80;99.90
3560;DHT22;1794;48.804;9.156;2022-09-14T04:24:35;17.60;99.90
3560;DHT22;1794;48.804;9.156;2022-09-14T04:27:03;17.70;99.90
3560;DHT22;1794;48.804;9.156;2022-09-14T04:29:30;17.70;99.90
3560;DHT22;1794;48.804;9.156;2022-09-14T04:31:57;17.70;99.90
3560;DHT22;1794;48.804;9.156;2022-09-14T04:34:24;17.60;99.90
3560;DHT22;1794;48.804;9.156;2022-09-14T04:36:51;17.50;99.90
3560;DHT22;1794;48.804;9.156;2022-09-14T04:39:17;17.50;99.90
3560;DHT22;1794;48.804;9.156;2022-09-14T04:41:44;17.70;99.90
3560;DHT22;1794;48.804;9.156;2022-09-14T04:44:13;17.60;99.90
3560;DHT22;1794;48.804;9.156;2022-09-14T04:46:40;17.70;99.90
3560;DHT22;1794;48.804;9.156;2022-09-14T04:49:07;17.60;99.90
3560;DHT22;1794;48.804;9.156;2022-09-14T04:51:35;17.60;99.90
3560;DHT22;1794;48.804;9.156;2022-09-14T04:54:03;17.60;99.90
3560;DHT22;1794;48.804;9.156;2022-09-14T04:56:32;17.60;99.90
3560;DHT22;1794;48.804;9.156;2022-09-14T04:59:00;17.60;99.90
3560;DHT22;1794;48.804;9.156;2022-09-14T05:01:31;17.70;99.90
3560;DHT22;1794;48.804;9.156;2022-09-14T05:03:58;17.60;99.90
3560;DHT22;1794;48.804;9.156;2022-09-14T05:06:27;17.60;99.90
3560;DHT22;1794;48.804;9.156;2022-09-14T05:08:55;17.70;99.90
3560;DHT22;1794;48.804;9.156;2022-09-14T05:11:23;17.70;99.90
3560;DHT22;1794;48.804;9.156;2022-09-14T05:13:51;17.80;99.90
3560;DHT22;1794;48.804;9.156;2022-09-14T05:16:19;18.00;99.90
3560;DHT22;1794;48.804;9.156;2022-09-14T05:18:49;18.20;99.90
3560;DHT22;1794;48.804;9.156;2022-09-14T05:21:17;18.30;99.90
3560;DHT22;1794;48.804;9.156;2022-09-14T05:23:45;18.20;99.90
3560;DHT22;1794;48.804;9.156;2022-09-14T05:26:12;18.00;99.90
3560;DHT22;1794;48.804;9.156;2022-09-14T05:28:39;17.90;99.90
3560;DHT22;1794;48.804;9.156;2022-09-14T05:31:08;17.80;99.90
3560;DHT22;1794;48.804;9.156;2022-09-14T05:33:35;18.00;99.90
3560;DHT22;1794;48.804;9.156;2022-09-14T05:36:06;18.10;99.90
3560;DHT22;1794;48.804;9.156;2022-09-14T05:38:35;18.20;99.90
3560;DHT22;1794;48.804;9.156;2022-09-14T05:41:02;18.10;99.90
3560;DHT22;1794;48.804;9.156;2022-09-14T05:43:29;18.10;99.90
3560;DHT22;1794;48.804;9.156;2022-09-14T05:46:00;17.90;99.90
3560;DHT22;1794;48.804;9.156;2022-09-14T05:48:29;17.90;99.90
3560;DHT22;1794;48.804;9.156;2022-09-14T05:50:57;17.90;99.90
3560;DHT22;1794;48.804;9.156;2022-09-14T05:53:26;18.00;99.90
3560;DHT22;1794;48.804;9.156;2022-09-14T05:55:58;17.90;99.90
3560;DHT22;1794;48.804;9.156;2022-09-14T05:58:25;18.00;99.90
3560;DHT22;1794;48.804;9.156;2022-09-14T06:00:52;18.00;99.90
3560;DHT22;1794;48.804;9.156;2022-09-14T06:03:19;18.00;99.90
3560;DHT22;1794;48.804;9.156;2022-09-14T06:05:46;18.10;99.90
3560;DHT22;1794;48.804;9.156;2022-09-14T06:08:12;18.10;99.90
3560;DHT22;1794;48.804;9.156;2022-09-14T06:10:41;18.30;99.90
3560;DHT22;1794;48.804;9.156;2022-09-14T06:13:07;18.20;99.90
3560;DHT22;1794;48.804;9.156;2022-09-14T06:15:34;18.20;99.90
3560;DHT22;1794;48.804;9.156;2022-09-14T06:18:01;18.30;99.90
3560;DHT22;1794;48.804;9.156;2022-09-14T06:20:28;18.40;99.90
3560;DHT22;1794;48.804;9.156;2022-09-14T06:22:55;18.40;99.90
3560;DHT22;1794;48.804;9.156;2022-09-14T06:25:21;18.80;99.90
3560;DHT22;1794;48.804;9.156;2022-09-14T06:27:52;18.70;99.90
3560;DHT22;1794;48.804;9.156;2022-09-14T06:30:19;18.80;99.90
3560;DHT22;1794;48.804;9.156;2022-09-14T06:32:45;18.70;99.90
3560;DHT22;1794;48.804;9.156;2022-09-14T06:35:12;18.60;99.90
3560;DHT22;1794;48.804;9.156;2022-09-14T06:37:39;18.50;99.90
3560;DHT22;1794;48.804;9.156;2022-09-14T06:40:06;18.50;99.90
3560;DHT22;1794;48.804;9.156;2022-09-14T06:42:33;18.50;99.90
3560;DHT22;1794;48.804;9.156;2022-09-14T06:45:01;18.60;99.90
3560;DHT22;1794;48.804;9.156;2022-09-14T06:47:31;18.70;99.90
3560;DHT22;1794;48.804;9.156;2022-09-14T06:49:57;18.80;99.90
3560;DHT22;1794;48.804;9.156;2022-09-14T06:52:24;18.90;99.90
3560;DHT22;1794;48.804;9.156;2022-09-14T06:54:51;19.00;99.90
3560;DHT22;1794;48.804;9.156;2022-09-14T06:57:18;19.10;99.90
3560;DHT22;1794;48.804;9.156;2022-09-14T06:59:44;19.20;99.90
3560;DHT22;1794;48.804;9.156;2022-09-14T07:02:13;19.30;99.90
3560;DHT22;1794;48.804;9.156;2022-09-14T07:04:40;19.40;99.90
3560;DHT22;1794;48.804;9.156;2022-09-14T07:07:06;19.60;99.90
3560;DHT22;1794;48.804;9.156;2022-09-14T07:09:33;19.70;99.90
3560;DHT22;1794;48.804;9.156;2022-09-14T07:12:01;19.70;99.90
3560;DHT22;1794;48.804;9.156;2022-09-14T07:14:28;19.90;99.90
3560;DHT22;1794;48.804;9.156;2022-09-14T07:16:55;20.10;99.90
3560;DHT22;1794;48.804;9.156;2022-09-14T07:19:23;20.30;99.90
3560;DHT22;1794;48.804;9.156;2022-09-14T07:21:49;20.70;99.90
3560;DHT22;1794;48.804;9.156;2022-09-14T07:24:18;20.80;99.90
3560;DHT22;1794;48.804;9.156;2022-09-14T07:26:45;20.80;99.90
3560;DHT22;1794;48.804;9.156;2022-09-14T07:29:13;20.80;99.90
3560;DHT22;1794;48.804;9.156;2022-09-14T07:31:41;20.80;99.90
3560;DHT22;1794;48.804;9.156;2022-09-14T07:34:08;20.80;99.90
3560;DHT22;1794;48.804;9.156;2022-09-14T07:36:38;20.70;99.90
3560;DHT22;1794;48.804;9.156;2022-09-14T07:39:06;20.70;99.90
3560;DHT22;1794;48.804;9.156;2022-09-14T07:41:34;20.80;99.90
3560;DHT22;1794;48.804;9.156;2022-09-14T07:44:02;21.10;99.90
3560;DHT22;1794;48.804;9.156;2022-09-14T07:46:31;21.10;99.90
3560;DHT22;1794;48.804;9.156;2022-09-14T07:49:00;21.30;99.90
3560;DHT22;1794;48.804;9.156;2022-09-14T07:51:29;21.80;99.90
3560;DHT22;1794;48.804;9.156;2022-09-14T07:53:57;22.40;99.90
3560;DHT22;1794;48.804;9.156;2022-09-14T07:56:25;22.70;99.90
3560;DHT22;1794;48.804;9.156;2022-09-14T07:58:53;23.10;99.90
3560;DHT22;1794;48.804;9.156;2022-09-14T08:01:20;23.30;99.90
3560;DHT22;1794;48.804;9.156;2022-09-14T08:03:47;23.80;99.90
3560;DHT22;1794;48.804;9.156;2022-09-14T08:06:17;23.80;99.90
3560;DHT22;1794;48.804;9.156;2022-09-14T08:08:46;24.30;99.90
3560;DHT22;1794;48.804;9.156;2022-09-14T08:11:15;25.10;99.90
3560;DHT22;1794;48.804;9.156;2022-09-14T08:13:48;26.40;99.90
3560;DHT22;1794;48.804;9.156;2022-09-14T08:16:15;26.00;99.90
3560;DHT22;1794;48.804;9.156;2022-09-14T08:18:42;25.10;99.90
3560;DHT22;1794;48.804;9.156;2022-09-14T08:21:11;24.60;99.90
3560;DHT22;1794;48.804;9.156;2022-09-14T08:23:39;24.20;99.90
3560;DHT22;1794;48.804;9.156;2022-09-14T08:26:07;24.90;99.90
3560;DHT22;1794;48.804;9.156;2022-09-14T08:28:35;24.20;99.90
3560;DHT22;1794;48.804;9.156;2022-09-14T08:31:04;24.00;99.90
3560;DHT22;1794;48.804;9.156;2022-09-14T08:33:31;23.90;99.90
3560;DHT22;1794;48.804;9.156;2022-09-14T08:35:59;24.30;99.90
3560;DHT22;1794;48.804;9.156;2022-09-14T08:38:26;24.10;99.90
3560;DHT22;1794;48.804;9.156;2022-09-14T08:40:52;24.20;99.90
3560;DHT22;1794;48.804;9.156;2022-09-14T08:43:20;24.70;99.90
3560;DHT22;1794;48.804;9.156;2022-09-14T08:45:51;24.40;99.90
3560;DHT22;1794;48.804;9.156;2022-09-14T08:48:24;24.50;99.90
3560;DHT22;1794;48.804;9.156;2022-09-14T08:50:52;25.40;99.90
3560;DHT22;1794;48.804;9.156;2022-09-14T08:53:19;26.00;99.90
3560;DHT22;1794;48.804;9.156;2022-09-14T08:55:49;26.40;99.90
3560;DHT22;1794;48.804;9.156;2022-09-14T08:58:28;26.80;99.90
3560;DHT22;1794;48.804;9.156;2022-09-14T09:01:03;27.20;99.90
3560;DHT22;1794;48.804;9.156;2022-09-14T09:04:01;27.40;99.90
3560;DHT22;1794;48.804;9.156;2022-09-14T09:06:38;28.50;99.90
3560;DHT22;1794;48.804;9.156;2022-09-14T09:09:14;28.90;99.90
3560;DHT22;1794;48.804;9.156;2022-09-14T09:11:45;30.00;99.90
3560;DHT22;1794;48.804;9.156;2022-09-14T09:14:17;29.60;99.90
3560;DHT22;1794;48.804;9.156;2022-09-14T09:16:48;29.70;99.90
3560;DHT22;1794;48.804;9.156;2022-09-14T09:19:20;30.80;99.90
3560;DHT22;1794;48.804;9.156;2022-09-14T09:21:50;29.50;99.90
3560;DHT22;1794;48.804;9.156;2022-09-14T09:24:23;30.30;99.90
3560;DHT22;1794;48.804;9.156;2022-09-14T09:26:51;32.70;99.90
3560;DHT22;1794;48.804;9.156;2022-09-14T09:29:18;32.90;99.90
3560;DHT22;1794;48.804;9.156;2022-09-14T09:31:49;30.20;99.90
3560;DHT22;1794;48.804;9.156;2022-09-14T09:34:22;28.20;99.90
3560;DHT22;1794;48.804;9.156;2022-09-14T09:36:50;28.00;99.90
3560;DHT22;1794;48.804;9.156;2022-09-14T09:39:17;30.10;99.90
3560;DHT22;1794;48.804;9.156;2022-09-14T09:41:47;30.90;99.90
3560;DHT22;1794;48.804;9.156;2022-09-14T09:44:15;29.50;99.90
3560;DHT22;1794;48.804;9.156;2022-09-14T09:46:47;28.70;99.90
3560;DHT22;1794;48.804;9.156;2022-09-14T09:49:17;28.70;99.90
3560;DHT22;1794;48.804;9.156;2022-09-14T09:51:44;30.40;99.90
3560;DHT22;1794;48.804;9.156;2022-09-14T09:54:21;32.40;99.90
3560;DHT22;1794;48.804;9.156;2022-09-14T09:56:52;34.60;99.90
3560;DHT22;1794;48.804;9.156;2022-09-14T09:59:28;35.00;99.90
3560;DHT22;1794;48.804;9.156;2022-09-14T10:02:19;34.90;99.90
3560;DHT22;1794;48.804;9.156;2022-09-14T10:04:58;35.00;99.90
3560;DHT22;1794;48.804;9.156;2022-09-14T10:07:25;34.10;99.90
3560;DHT22;1794;48.804;9.156;2022-09-14T10:09:57;32.10;99.90
3560;DHT22;1794;48.804;9.156;2022-09-14T10:12:25;32.80;99.90
3560;DHT22;1794;48.804;9.156;2022-09-14T10:15:07;33.00;99.90
3560;DHT22;1794;48.804;9.156;2022-09-14T10:17:52;33.80;99.90
3560;DHT22;1794;48.804;9.156;2022-09-14T10:20:20;32.60;99.90
3560;DHT22;1794;48.804;9.156;2022-09-14T10:22:48;30.80;99.90
3560;DHT22;1794;48.804;9.156;2022-09-14T10:25:23;29.80;99.90
3560;DHT22;1794;48.804;9.156;2022-09-14T10:27:57;30.90;99.90
3560;DHT22;1794;48.804;9.156;2022-09-14T10:30:26;32.10;99.90
3560;DHT22;1794;48.804;9.156;2022-09-14T10:32:57;32.70;99.90
3560;DHT22;1794;48.804;9.156;2022-09-14T10:35:39;32.00;99.90
3560;DHT22;1794;48.804;9.156;2022-09-14T10:38:17;29.10;99.90
3560;DHT22;1794;48.804;9.156;2022-09-14T10:40:55;28.50;99.90
3560;DHT22;1794;48.804;9.156;2022-09-14T10:43:30;29.70;99.90
3560;DHT22;1794;48.804;9.156;2022-09-14T10:46:04;27.90;99.90
3560;DHT22;1794;48.804;9.156;2022-09-14T10:48:48;27.30;99.90
3560;DHT22;1794;48.804;9.156;2022-09-14T10:51:32;28.30;99.90
3560;DHT22;1794;48.804;9.156;2022-09-14T10:54:13;29.00;99.90
3560;DHT22;1794;48.804;9.156;2022-09-14T10:56:51;29.00;99.90
3560;DHT22;1794;48.804;9.156;2022-09-14T10:59:27;28.80;99.90
3560;DHT22;1794;48.804;9.156;2022-09-14T11:02:14;29.60;99.90
3560;DHT22;1794;48.804;9.156;2022-09-14T11:04:58;30.50;99.90
3560;DHT22;1794;48.804;9.156;2022-09-14T11:07:45;29.60;99.90
3560;DHT22;1794;48.804;9.156;2022-09-14T11:10:23;28.50;99.90
3560;DHT22;1794;48.804;9.156;2022-09-14T11:13:04;28.70;99.90
3560;DHT22;1794;48.804;9.156;2022-09-14T11:15:37;29.20;99.90
3560;DHT22;1794;48.804;9.156;2022-09-14T11:18:17;30.00;99.90
3560;DHT22;1794;48.804;9.156;2022-09-14T11:20:57;32.10;99.90
3560;DHT22;1794;48.804;9.156;2022-09-14T11:23:34;33.30;99.90
3560;DHT22;1794;48.804;9.156;2022-09-14T11:26:08;34.90;99.90
3560;DHT22;1794;48.804;9.156;2022-09-14T11:28:39;34.00;99.90
3560;DHT22;1794;48.804;9.156;2022-09-14T11:31:11;33.50;99.90
3560;DHT22;1794;48.804;9.156;2022-09-14T11:33:46;32.30;99.90
3560;DHT22;1794;48.804;9.156;2022-09-14T11:36:19;31.50;99.90
3560;DHT22;1794;48.804;9.156;2022-09-14T11:38:51;30.40;99.90
3560;DHT22;1794;48.804;9.156;2022-09-14T11:41:25;29.50;99.90
3560;DHT22;1794;48.804;9.156;2022-09-14T11:43:55;30.00;99.90
3560;DHT22;1794;48.804;9.156;2022-09-14T11:46:25;32.10;99.90
3560;DHT22;1794;48.804;9.156;2022-09-14T11:48:58;33.10;99.90
3560;DHT22;1794;48.804;9.156;2022-09-14T11:51:30;34.00;99.90
3560;DHT22;1794;48.804;9.156;2022-09-14T11:53:58;34.60;99.90
3560;DHT22;1794;48.804;9.156;2022-09-14T11:56:27;34.20;99.90
3560;DHT22;1794;48.804;9.156;2022-09-14T11:58:56;32.70;99.90
3560;DHT22;1794;48.804;9.156;2022-09-14T12:01:32;30.80;99.90
3560;DHT22;1794;48.804;9.156;2022-09-14T12:04:17;29.80;99.90
3560;DHT22;1794;48.804;9.156;2022-09-14T12:06:51;29.40;99.90
3560;DHT22;1794;48.804;9.156;2022-09-14T12:09:50;27.80;99.90
3560;DHT22;1794;48.804;9.156;2022-09-14T12:12:35;26.90;99.90
3560;DHT22;1794;48.804;9.156;2022-09-14T12:15:16;26.90;99.90
3560;DHT22;1794;48.804;9.156;2022-09-14T12:18:21;26.70;99.90
3560;DHT22;1794;48.804;9.156;2022-09-14T12:20:59;26.90;99.90
3560;DHT22;1794;48.804;9.156;2022-09-14T12:23:29;26.90;99.90
3560;DHT22;1794;48.804;9.156;2022-09-14T12:26:01;26.70;99.90
3560;DHT22;1794;48.804;9.156;2022-09-14T12:28:39;26.50;99.90
3560;DHT22;1794;48.804;9.156;2022-09-14T12:31:11;26.40;99.90
3560;DHT22;1794;48.804;9.156;2022-09-14T12:36:57;26.50;99.90
3560;DHT22;1794;48.804;9.156;2022-09-14T12:39:27;26.10;99.90
3560;DHT22;1794;48.804;9.156;2022-09-14T12:42:03;25.90;99.90
3560;DHT22;1794;48.804;9.156;2022-09-14T12:44:36;25.70;99.90
3560;DHT22;1794;48.804;9.156;2022-09-14T12:47:46;25.20;99.90
3560;DHT22;1794;48.804;9.156;2022-09-14T12:50:16;24.90;99.90
3560;DHT22;1794;48.804;9.156;2022-09-14T12:52:51;24.70;99.90
3560;DHT22;1794;48.804;9.156;2022-09-14T12:55:37;24.30;99.90
3560;DHT22;1794;48.804;9.156;2022-09-14T12:58:11;23.20;99.90
3560;DHT22;1794;48.804;9.156;2022-09-14T13:00:50;22.30;99.90
3560;DHT22;1794;48.804;9.156;2022-09-14T13:03:37;22.00;99.90
3560;DHT22;1794;48.804;9.156;2022-09-14T13:06:10;21.60;99.90
3560;DHT22;1794;48.804;9.156;2022-09-14T13:08:37;21.20;99.90
3560;DHT22;1794;48.804;9.156;2022-09-14T13:11:06;21.00;99.90
3560;DHT22;1794;48.804;9.156;2022-09-14T13:13:33;20.70;99.90
3560;DHT22;1794;48.804;9.156;2022-09-14T13:16:01;20.60;99.90
3560;DHT22;1794;48.804;9.156;2022-09-14T13:18:31;20.40;99.90
3560;DHT22;1794;48.804;9.156;2022-09-14T13:20:59;20.30;99.90
3560;DHT22;1794;48.804;9.156;2022-09-14T13:23:28;20.30;99.90
3560;DHT22;1794;48.804;9.156;2022-09-14T13:25:56;20.20;99.90
3560;DHT22;1794;48.804;9.156;2022-09-14T13:28:29;20.10;99.90
3560;DHT22;1794;48.804;9.156;2022-09-14T13:30:58;20.10;99.90
3560;DHT22;1794;48.804;9.156;2022-09-14T13:33:26;20.00;99.90
3560;DHT22;1794;48.804;9.156;2022-09-14T13:35:55;20.00;99.90
3560;DHT22;1794;48.804;9.156;2022-09-14T13:38:24;20.10;99.90
3560;DHT22;1794;48.804;9.156;2022-09-14T13:40:53;20.20;99.90
3560;DHT22;1794;48.804;9.156;2022-09-14T13:43:21;20.20;99.90
3560;DHT22;1794;48.804;9.156;2022-09-14T13:45:50;20.20;99.90
3560;DHT22;1794;48.804;9.156;2022-09-14T13:48:18;20.20;99.90
3560;DHT22;1794;48.804;9.156;2022-09-14T13:50:47;20.30;99.90
3560;DHT22;1794;48.804;9.156;2022-09-14T13:53:38;20.30;99.90
3560;DHT22;1794;48.804;9.156;2022-09-14T13:56:17;20.40;99.90
3560;DHT22;1794;48.804;9.156;2022-09-14T13:58:44;20.10;99.90
3560;DHT22;1794;48.804;9.156;2022-09-14T14:01:12;19.90;99.90
3560;DHT22;1794;48.804;9.156;2022-09-14T14:03:49;19.70;99.90
3560;DHT22;1794;48.804;9.156;2022-09-14T14:06:25;19.80;99.90
3560;DHT22;1794;48.804;9.156;2022-09-14T14:08:55;19.80;99.90
3560;DHT22;1794;48.804;9.156;2022-09-14T14:11:30;19.90;99.90
3560;DHT22;1794;48.804;9.156;2022-09-14T14:14:10;20.00;99.90
3560;DHT22;1794;48.804;9.156;2022-09-14T14:16:39;19.80;99.90
3560;DHT22;1794;48.804;9.156;2022-09-14T14:19:25;19.60;99.90
3560;DHT22;1794;48.804;9.156;2022-09-14T14:22:11;19.60;99.90
3560;DHT22;1794;48.804;9.156;2022-09-14T14:24:42;19.50;99.90
3560;DHT22;1794;48.804;9.156;2022-09-14T14:27:24;19.50;99.90
3560;DHT22;1794;48.804;9.156;2022-09-14T14:29:52;19.60;99.90
3560;DHT22;1794;48.804;9.156;2022-09-14T14:32:20;19.60;99.90
3560;DHT22;1794;48.804;9.156;2022-09-14T14:34:47;19.80;99.90
3560;DHT22;1794;48.804;9.156;2022-09-14T14:37:14;19.70;99.90
3560;DHT22;1794;48.804;9.156;2022-09-14T14:39:41;19.80;99.90
3560;DHT22;1794;48.804;9.156;2022-09-14T14:42:08;19.80;99.90
3560;DHT22;1794;48.804;9.156;2022-09-14T14:44:36;19.80;99.90
3560;DHT22;1794;48.804;9.156;2022-09-14T14:47:04;19.80;99.90
3560;DHT22;1794;48.804;9.156;2022-09-14T14:49:32;19.70;99.90
3560;DHT22;1794;48.804;9.156;2022-09-14T14:51:59;19.70;99.90
3560;DHT22;1794;48.804;9.156;2022-09-14T14:54:25;19.60;99.90
3560;DHT22;1794;48.804;9.156;2022-09-14T14:56:53;19.70;99.90
3560;DHT22;1794;48.804;9.156;2022-09-14T14:59:26;19.70;99.90
3560;DHT22;1794;48.804;9.156;2022-09-14T15:01:54;19.70;99.90
3560;DHT22;1794;48.804;9.156;2022-09-14T15:04:22;19.60;99.90
3560;DHT22;1794;48.804;9.156;2022-09-14T15:06:50;19.50;99.90
3560;DHT22;1794;48.804;9.156;2022-09-14T15:09:18;19.60;99.90
3560;DHT22;1794;48.804;9.156;2022-09-14T15:11:45;19.60;99.90
3560;DHT22;1794;48.804;9.156;2022-09-14T15:14:13;19.50;99.90
3560;DHT22;1794;48.804;9.156;2022-09-14T15:16:41;19.40;99.90
3560;DHT22;1794;48.804;9.156;2022-09-14T15:19:08;19.60;99.90
3560;DHT22;1794;48.804;9.156;2022-09-14T15:21:35;19.60;99.90
3560;DHT22;1794;48.804;9.156;2022-09-14T15:24:04;19.50;99.90
3560;DHT22;1794;48.804;9.156;2022-09-14T15:26:31;19.40;99.90
3560;DHT22;1794;48.804;9.156;2022-09-14T15:28:58;19.40;99.90
3560;DHT22;1794;48.804;9.156;2022-09-14T15:31:25;19.40;99.90
3560;DHT22;1794;48.804;9.156;2022-09-14T15:33:52;19.50;99.90
3560;DHT22;1794;48.804;9.156;2022-09-14T15:36:41;19.50;99.90
3560;DHT22;1794;48.804;9.156;2022-09-14T15:39:11;19.70;99.90
3560;DHT22;1794;48.804;9.156;2022-09-14T15:41:39;19.80;99.90
3560;DHT22;1794;48.804;9.156;2022-09-14T15:44:06;19.70;99.90
3560;DHT22;1794;48.804;9.156;2022-09-14T15:46:33;19.70;99.90
3560;DHT22;1794;48.804;9.156;2022-09-14T15:49:03;19.60;99.90
3560;DHT22;1794;48.804;9.156;2022-09-14T15:51:30;19.70;99.90
3560;DHT22;1794;48.804;9.156;2022-09-14T15:53:57;19.90;99.90
3560;DHT22;1794;48.804;9.156;2022-09-14T15:56:25;19.80;99.90
3560;DHT22;1794;48.804;9.156;2022-09-14T15:58:52;19.90;99.90
3560;DHT22;1794;48.804;9.156;2022-09-14T16:01:22;19.90;99.90
3560;DHT22;1794;48.804;9.156;2022-09-14T16:03:52;19.90;99.90
3560;DHT22;1794;48.804;9.156;2022-09-14T16:06:20;19.80;99.90
3560;DHT22;1794;48.804;9.156;2022-09-14T16:08:47;19.90;99.90
3560;DHT22;1794;48.804;9.156;2022-09-14T16:11:14;19.80;99.90
3560;DHT22;1794;48.804;9.156;2022-09-14T16:13:42;19.80;99.90
3560;DHT22;1794;48.804;9.156;2022-09-14T16:16:10;19.60;99.90
3560;DHT22;1794;48.804;9.156;2022-09-14T16:18:37;19.60;99.90
3560;DHT22;1794;48.804;9.156;2022-09-14T16:21:06;19.40;99.90
3560;DHT22;1794;48.804;9.156;2022-09-14T16:23:34;19.30;99.90
3560;DHT22;1794;48.804;9.156;2022-09-14T16:26:04;19.40;99.90
3560;DHT22;1794;48.804;9.156;2022-09-14T16:28:31;19.40;99.90